sensor_id;sensor_type;location;lat;lon;timestamp;temperature;humidity
67899;DHT22;54699;51.796;10.956;2022-10-17T00:00:02;22.90;55.50
67899;DHT22;54699;51.796;10.956;2022-10-17T00:02:31;22.90;55.70
67899;DHT22;54699;51.796;10.956;2022-10-17T00:04:57;22.90;55.60
67899;DHT22;54699;51.796;10.956;2022-10-17T00:07:24;22.90;55.60
67899;DHT22;54699;51.796;10.956;2022-10-17T00:09:52;22.90;55.50
67899;DHT22;54699;51.796;10.956;2022-10-17T00:12:19;22.90;55.50
67899;DHT22;54699;51.796;10.956;2022-10-17T00:14:46;22.90;55.60
67899;DHT22;54699;51.796;10.956;2022-10-17T00:17:13;22.90;55.60
67899;DHT22;54699;51.796;10.956;2022-10-17T00:19:40;22.90;55.40
67899;DHT22;54699;51.796;10.956;2022-10-17T00:22:07;22.90;55.50
67899;DHT22;54699;51.796;10.956;2022-10-17T00:24:34;22.90;55.50
67899;DHT22;54699;51.796;10.956;2022-10-17T00:27:02;22.90;55.50
67899;DHT22;54699;51.796;10.956;2022-10-17T00:29:29;22.90;55.50
67899;DHT22;54699;51.796;10.956;2022-10-17T00:31:56;22.90;55.30
67899;DHT22;54699;51.796;10.956;2022-10-17T00:34:23;22.90;55.60
67899;DHT22;54699;51.796;10.956;2022-10-17T00:36:50;22.90;55.60
67899;DHT22;54699;51.796;10.956;2022-10-17T00:39:17;22.90;55.40
67899;DHT22;54699;51.796;10.956;2022-10-17T00:41:43;22.90;55.40
67899;DHT22;54699;51.796;10.956;2022-10-17T00:47:14;22.90;55.50
67899;DHT22;54699;51.796;10.956;2022-10-17T00:49:45;22.80;55.60
67899;DHT22;54699;51.796;10.956;2022-10-17T00:52:13;22.90;55.50
67899;DHT22;54699;51.796;10.956;2022-10-17T00:54:43;22.80;55.60
67899;DHT22;54699;51.796;10.956;2022-10-17T00:57:13;22.80;55.70
67899;DHT22;54699;51.796;10.956;2022-10-17T00:59:42;22.80;55.60
67899;DHT22;54699;51.796;10.956;2022-10-17T01:02:14;22.90;55.60
67899;DHT22;54699;51.796;10.956;2022-10-17T01:04:43;22.90;55.70
67899;DHT22;54699;51.796;10.956;2022-10-17T01:07:13;22.80;55.50
67899;DHT22;54699;51.796;10.956;2022-10-17T01:09:39;22.90;55.70
67899;DHT22;54699;51.796;10.956;2022-10-17T01:12:10;22.90;55.60
67899;DHT22;54699;51.796;10.956;2022-10-17T01:14:44;22.90;55.50
67899;DHT22;54699;51.796;10.956;2022-10-17T01:17:26;22.80;55.60
67899;DHT22;54699;51.796;10.956;2022-10-17T01:20:07;22.80;55.70
67899;DHT22;54699;51.796;10.956;2022-10-17T01:22:58;22.80;55.70
67899;DHT22;54699;51.796;10.956;2022-10-17T01:25:43;22.80;55.70
67899;DHT22;54699;51.796;10.956;2022-10-17T01:28:21;22.90;55.50
67899;DHT22;54699;51.796;10.956;2022-10-17T01:31:09;22.90;55.60
67899;DHT22;54699;51.796;10.956;2022-10-17T01:33:43;22.80;55.60
67899;DHT22;54699;51.796;10.956;2022-10-17T01:36:19;22.80;55.60
67899;DHT22;54699;51.796;10.956;2022-10-17T01:38:52;22.80;55.60
67899;DHT22;54699;51.796;10.956;2022-10-17T01:41:29;22.80;56.50
67899;DHT22;54699;51.796;10.956;2022-10-17T01:44:06;22.90;55.70
67899;DHT22;54699;51.796;10.956;2022-10-17T01:46:40;22.90;55.70
67899;DHT22;54699;51.796;10.956;2022-10-17T01:49:09;22.80;55.60
67899;DHT22;54699;51.796;10.956;2022-10-17T01:51:39;22.80;55.50
67899;DHT22;54699;51.796;10.956;2022-10-17T01:54:12;22.80;55.60
67899;DHT22;54699;51.796;10.956;2022-10-17T01:56:43;22.80;55.60
67899;DHT22;54699;51.796;10.956;2022-10-17T01:59:14;22.80;55.70
67899;DHT22;54699;51.796;10.956;2022-10-17T02:01:47;22.80;55.60
67899;DHT22;54699;51.796;10.956;2022-10-17T02:04:18;22.80;55.70
67899;DHT22;54699;51.796;10.956;2022-10-17T02:06:45;22.80;55.60
67899;DHT22;54699;51.796;10.956;2022-10-17T02:09:16;22.80;55.70
67899;DHT22;54699;51.796;10.956;2022-10-17T02:11:48;22.80;55.70
67899;DHT22;54699;51.796;10.956;2022-10-17T02:14:21;22.80;55.70
67899;DHT22;54699;51.796;10.956;2022-10-17T02:17:02;22.80;55.70
67899;DHT22;54699;51.796;10.956;2022-10-17T02:19:40;22.80;55.60
67899;DHT22;54699;51.796;10.956;2022-10-17T02:22:17;22.80;55.60
67899;DHT22;54699;51.796;10.956;2022-10-17T02:24:53;22.80;55.60
67899;DHT22;54699;51.796;10.956;2022-10-17T02:27:31;22.80;55.60
67899;DHT22;54699;51.796;10.956;2022-10-17T02:30:05;22.80;55.60
67899;DHT22;54699;51.796;10.956;2022-10-17T02:32:39;22.80;55.70
67899;DHT22;54699;51.796;10.956;2022-10-17T02:35:10;22.80;56.60
67899;DHT22;54699;51.796;10.956;2022-10-17T02:37:41;22.80;55.70
67899;DHT22;54699;51.796;10.956;2022-10-17T02:40:12;22.80;55.60
67899;DHT22;54699;51.796;10.956;2022-10-17T02:42:42;22.80;55.50
67899;DHT22;54699;51.796;10.956;2022-10-17T02:45:11;22.80;55.60
67899;DHT22;54699;51.796;10.956;2022-10-17T02:47:45;22.80;55.70
67899;DHT22;54699;51.796;10.956;2022-10-17T02:50:20;22.80;55.50
67899;DHT22;54699;51.796;10.956;2022-10-17T02:52:54;22.80;55.60
67899;DHT22;54699;51.796;10.956;2022-10-17T02:55:27;22.80;55.60
67899;DHT22;54699;51.796;10.956;2022-10-17T02:57:58;22.80;55.60
67899;DHT22;54699;51.796;10.956;2022-10-17T03:00:29;22.80;55.60
67899;DHT22;54699;51.796;10.956;2022-10-17T03:02:58;22.80;55.60
67899;DHT22;54699;51.796;10.956;2022-10-17T03:05:43;22.70;55.40
67899;DHT22;54699;51.796;10.956;2022-10-17T03:08:10;22.70;55.60
67899;DHT22;54699;51.796;10.956;2022-10-17T03:10:37;22.70;55.50
67899;DHT22;54699;51.796;10.956;2022-10-17T03:13:04;22.70;55.40
67899;DHT22;54699;51.796;10.956;2022-10-17T03:15:30;22.70;55.40
67899;DHT22;54699;51.796;10.956;2022-10-17T03:17:58;22.70;55.40
67899;DHT22;54699;51.796;10.956;2022-10-17T03:20:25;22.70;55.40
67899;DHT22;54699;51.796;10.956;2022-10-17T03:22:52;22.70;55.30
67899;DHT22;54699;51.796;10.956;2022-10-17T03:25:19;22.70;55.30
67899;DHT22;54699;51.796;10.956;2022-10-17T03:27:46;22.80;55.30
67899;DHT22;54699;51.796;10.956;2022-10-17T03:30:13;22.70;55.30
67899;DHT22;54699;51.796;10.956;2022-10-17T03:32:39;22.70;55.40
67899;DHT22;54699;51.796;10.956;2022-10-17T03:35:08;22.70;55.30
67899;DHT22;54699;51.796;10.956;2022-10-17T03:37:34;22.70;55.40
67899;DHT22;54699;51.796;10.956;2022-10-17T03:40:01;22.70;55.30
67899;DHT22;54699;51.796;10.956;2022-10-17T03:42:30;22.70;55.30
67899;DHT22;54699;51.796;10.956;2022-10-17T03:44:57;22.70;55.30
67899;DHT22;54699;51.796;10.956;2022-10-17T03:47:23;22.70;55.30
67899;DHT22;54699;51.796;10.956;2022-10-17T03:49:50;22.70;55.30
67899;DHT22;54699;51.796;10.956;2022-10-17T03:52:20;22.70;55.20
67899;DHT22;54699;51.796;10.956;2022-10-17T03:54:46;22.70;55.40
67899;DHT22;54699;51.796;10.956;2022-10-17T03:57:15;22.70;55.50
67899;DHT22;54699;51.796;10.956;2022-10-17T03:59:41;22.70;55.50
67899;DHT22;54699;51.796;10.956;2022-10-17T04:02:08;22.70;55.40
67899;DHT22;54699;51.796;10.956;2022-10-17T04:04:35;22.70;55.30
67899;DHT22;54699;51.796;10.956;2022-10-17T04:07:02;22.70;55.30
67899;DHT22;54699;51.796;10.956;2022-10-17T04:09:30;22.70;55.30
67899;DHT22;54699;51.796;10.956;2022-10-17T04:11:57;22.70;55.30
67899;DHT22;54699;51.796;10.956;2022-10-17T04:14:24;22.70;55.40
67899;DHT22;54699;51.796;10.956;2022-10-17T04:16:51;22.70;55.10
67899;DHT22;54699;51.796;10.956;2022-10-17T04:19:18;22.70;55.30
67899;DHT22;54699;51.796;10.956;2022-10-17T04:21:45;22.70;55.20
67899;DHT22;54699;51.796;10.956;2022-10-17T04:24:12;22.70;55.30
67899;DHT22;54699;51.796;10.956;2022-10-17T04:26:40;22.70;55.30
67899;DHT22;54699;51.796;10.956;2022-10-17T04:29:07;22.70;55.40
67899;DHT22;54699;51.796;10.956;2022-10-17T04:31:33;22.60;55.40
67899;DHT22;54699;51.796;10.956;2022-10-17T04:34:00;22.70;55.50
67899;DHT22;54699;51.796;10.956;2022-10-17T04:36:27;22.60;55.40
67899;DHT22;54699;51.796;10.956;2022-10-17T04:38:54;22.60;55.40
67899;DHT22;54699;51.796;10.956;2022-10-17T04:41:21;22.60;55.50
67899;DHT22;54699;51.796;10.956;2022-10-17T04:43:49;22.60;55.60
67899;DHT22;54699;51.796;10.956;2022-10-17T04:46:16;22.70;55.40
67899;DHT22;54699;51.796;10.956;2022-10-17T04:48:43;22.60;55.50
67899;DHT22;54699;51.796;10.956;2022-10-17T04:51:10;22.60;55.30
67899;DHT22;54699;51.796;10.956;2022-10-17T04:53:39;22.60;55.70
67899;DHT22;54699;51.796;10.956;2022-10-17T04:56:08;22.70;55.70
67899;DHT22;54699;51.796;10.956;2022-10-17T04:58:36;22.60;55.70
67899;DHT22;54699;51.796;10.956;2022-10-17T05:01:06;22.60;55.70
67899;DHT22;54699;51.796;10.956;2022-10-17T05:03:35;22.70;55.80
67899;DHT22;54699;51.796;10.956;2022-10-17T05:06:03;22.70;56.70
67899;DHT22;54699;51.796;10.956;2022-10-17T05:08:31;22.60;55.30
67899;DHT22;54699;51.796;10.956;2022-10-17T05:13:49;22.60;55.40
67899;DHT22;54699;51.796;10.956;2022-10-17T05:16:18;22.60;55.70
67899;DHT22;54699;51.796;10.956;2022-10-17T05:18:47;22.50;55.20
67899;DHT22;54699;51.796;10.956;2022-10-17T05:21:15;22.60;55.20
67899;DHT22;54699;51.796;10.956;2022-10-17T05:23:43;22.50;55.80
67899;DHT22;54699;51.796;10.956;2022-10-17T05:26:10;22.50;55.90
67899;DHT22;54699;51.796;10.956;2022-10-17T05:28:37;22.60;55.90
67899;DHT22;54699;51.796;10.956;2022-10-17T05:31:05;22.50;55.80
67899;DHT22;54699;51.796;10.956;2022-10-17T05:33:36;22.50;55.30
67899;DHT22;54699;51.796;10.956;2022-10-17T05:36:04;22.60;56.00
67899;DHT22;54699;51.796;10.956;2022-10-17T05:38:32;22.60;55.80
67899;DHT22;54699;51.796;10.956;2022-10-17T05:41:00;22.60;55.70
67899;DHT22;54699;51.796;10.956;2022-10-17T05:43:29;22.50;56.10
67899;DHT22;54699;51.796;10.956;2022-10-17T05:45:56;22.60;56.20
67899;DHT22;54699;51.796;10.956;2022-10-17T05:48:25;22.60;55.60
67899;DHT22;54699;51.796;10.956;2022-10-17T05:50:57;22.60;55.60
67899;DHT22;54699;51.796;10.956;2022-10-17T05:53:30;22.60;55.30
67899;DHT22;54699;51.796;10.956;2022-10-17T05:56:06;22.60;55.50
67899;DHT22;54699;51.796;10.956;2022-10-17T05:58:42;22.70;54.90
67899;DHT22;54699;51.796;10.956;2022-10-17T06:07:37;22.80;55.30
67899;DHT22;54699;51.796;10.956;2022-10-17T06:10:06;22.80;54.70
67899;DHT22;54699;51.796;10.956;2022-10-17T06:12:36;22.90;54.70
67899;DHT22;54699;51.796;10.956;2022-10-17T06:15:07;22.90;54.50
67899;DHT22;54699;51.796;10.956;2022-10-17T06:17:35;22.90;54.10
67899;DHT22;54699;51.796;10.956;2022-10-17T06:20:02;22.90;54.40
67899;DHT22;54699;51.796;10.956;2022-10-17T06:22:29;23.00;54.40
67899;DHT22;54699;51.796;10.956;2022-10-17T06:24:57;23.00;54.60
67899;DHT22;54699;51.796;10.956;2022-10-17T06:27:24;23.00;54.60
67899;DHT22;54699;51.796;10.956;2022-10-17T06:29:51;23.10;54.60
67899;DHT22;54699;51.796;10.956;2022-10-17T06:32:18;23.10;54.20
67899;DHT22;54699;51.796;10.956;2022-10-17T06:34:46;23.20;53.90
67899;DHT22;54699;51.796;10.956;2022-10-17T06:37:13;23.20;53.70
67899;DHT22;54699;51.796;10.956;2022-10-17T06:39:41;23.20;53.40
67899;DHT22;54699;51.796;10.956;2022-10-17T06:42:11;23.20;53.70
67899;DHT22;54699;51.796;10.956;2022-10-17T06:44:39;23.20;53.70
67899;DHT22;54699;51.796;10.956;2022-10-17T06:47:08;23.20;53.40
67899;DHT22;54699;51.796;10.956;2022-10-17T06:49:38;23.20;53.20
67899;DHT22;54699;51.796;10.956;2022-10-17T06:52:28;23.20;53.40
67899;DHT22;54699;51.796;10.956;2022-10-17T06:55:23;23.20;53.50
67899;DHT22;54699;51.796;10.956;2022-10-17T06:58:42;23.20;53.30
67899;DHT22;54699;51.796;10.956;2022-10-17T07:01:20;23.20;54.30
67899;DHT22;54699;51.796;10.956;2022-10-17T07:03:52;23.20;53.50
67899;DHT22;54699;51.796;10.956;2022-10-17T07:06:21;23.20;54.10
67899;DHT22;54699;51.796;10.956;2022-10-17T07:08:49;23.20;53.90
67899;DHT22;54699;51.796;10.956;2022-10-17T07:11:17;23.20;53.90
67899;DHT22;54699;51.796;10.956;2022-10-17T07:13:48;23.20;53.90
67899;DHT22;54699;51.796;10.956;2022-10-17T07:16:17;23.20;54.40
67899;DHT22;54699;51.796;10.956;2022-10-17T07:18:47;23.20;54.50
67899;DHT22;54699;51.796;10.956;2022-10-17T07:21:15;23.20;54.30
67899;DHT22;54699;51.796;10.956;2022-10-17T07:23:43;23.30;54.10
67899;DHT22;54699;51.796;10.956;2022-10-17T07:26:10;23.20;54.20
67899;DHT22;54699;51.796;10.956;2022-10-17T07:28:40;23.20;54.00
67899;DHT22;54699;51.796;10.956;2022-10-17T07:31:10;23.20;53.80
67899;DHT22;54699;51.796;10.956;2022-10-17T07:33:39;23.30;54.00
67899;DHT22;54699;51.796;10.956;2022-10-17T07:36:13;23.40;54.30
67899;DHT22;54699;51.796;10.956;2022-10-17T07:42:29;23.60;53.70
67899;DHT22;54699;51.796;10.956;2022-10-17T07:45:08;23.50;53.30
67899;DHT22;54699;51.796;10.956;2022-10-17T07:47:47;23.60;52.50
67899;DHT22;54699;51.796;10.956;2022-10-17T07:50:42;23.70;52.30
67899;DHT22;54699;51.796;10.956;2022-10-17T07:54:01;23.80;52.80
67899;DHT22;54699;51.796;10.956;2022-10-17T07:57:10;23.90;52.10
67899;DHT22;54699;51.796;10.956;2022-10-17T07:59:55;24.00;51.80
67899;DHT22;54699;51.796;10.956;2022-10-17T08:02:32;24.10;53.00
67899;DHT22;54699;51.796;10.956;2022-10-17T08:05:14;24.00;52.20
67899;DHT22;54699;51.796;10.956;2022-10-17T08:07:59;23.90;51.40
67899;DHT22;54699;51.796;10.956;2022-10-17T08:10:26;23.90;52.80
67899;DHT22;54699;51.796;10.956;2022-10-17T08:12:54;23.80;52.10
67899;DHT22;54699;51.796;10.956;2022-10-17T08:15:22;23.90;52.60
67899;DHT22;54699;51.796;10.956;2022-10-17T08:17:50;23.90;52.70
67899;DHT22;54699;51.796;10.956;2022-10-17T08:20:21;23.80;52.00
67899;DHT22;54699;51.796;10.956;2022-10-17T08:22:52;23.80;51.90
67899;DHT22;54699;51.796;10.956;2022-10-17T08:25:20;23.70;52.50
67899;DHT22;54699;51.796;10.956;2022-10-17T08:27:48;23.70;52.00
67899;DHT22;54699;51.796;10.956;2022-10-17T08:30:16;23.70;52.50
67899;DHT22;54699;51.796;10.956;2022-10-17T08:32:43;23.70;52.60
67899;DHT22;54699;51.796;10.956;2022-10-17T08:35:10;23.70;52.50
67899;DHT22;54699;51.796;10.956;2022-10-17T08:37:40;23.70;52.40
67899;DHT22;54699;51.796;10.956;2022-10-17T08:40:18;23.70;51.80
67899;DHT22;54699;51.796;10.956;2022-10-17T08:43:06;23.70;51.70
67899;DHT22;54699;51.796;10.956;2022-10-17T08:45:54;23.70;51.90
67899;DHT22;54699;51.796;10.956;2022-10-17T08:48:50;23.70;52.30
67899;DHT22;54699;51.796;10.956;2022-10-17T08:51:23;23.80;52.50
67899;DHT22;54699;51.796;10.956;2022-10-17T08:54:19;23.70;52.50
67899;DHT22;54699;51.796;10.956;2022-10-17T08:57:19;23.80;52.50
67899;DHT22;54699;51.796;10.956;2022-10-17T09:00:10;23.80;52.10
67899;DHT22;54699;51.796;10.956;2022-10-17T09:02:47;23.80;52.30
67899;DHT22;54699;51.796;10.956;2022-10-17T09:05:27;23.90;52.80
67899;DHT22;54699;51.796;10.956;2022-10-17T09:08:17;23.90;52.90
67899;DHT22;54699;51.796;10.956;2022-10-17T09:14:11;23.90;53.10
67899;DHT22;54699;51.796;10.956;2022-10-17T09:16:58;23.90;53.10
67899;DHT22;54699;51.796;10.956;2022-10-17T09:19:37;23.90;53.10
67899;DHT22;54699;51.796;10.956;2022-10-17T09:22:09;23.90;53.40
67899;DHT22;54699;51.796;10.956;2022-10-17T09:24:44;23.90;52.90
67899;DHT22;54699;51.796;10.956;2022-10-17T09:27:21;23.90;52.50
67899;DHT22;54699;51.796;10.956;2022-10-17T09:29:54;24.00;53.20
67899;DHT22;54699;51.796;10.956;2022-10-17T09:32:48;23.90;52.50
67899;DHT22;54699;51.796;10.956;2022-10-17T09:35:18;23.90;52.70
67899;DHT22;54699;51.796;10.956;2022-10-17T09:37:47;24.00;52.60
67899;DHT22;54699;51.796;10.956;2022-10-17T09:43:55;24.10;52.80
67899;DHT22;54699;51.796;10.956;2022-10-17T09:46:39;24.10;52.80
67899;DHT22;54699;51.796;10.956;2022-10-17T09:49:11;24.20;52.90
67899;DHT22;54699;51.796;10.956;2022-10-17T09:51:57;24.20;53.50
67899;DHT22;54699;51.796;10.956;2022-10-17T09:54:36;24.30;52.80
67899;DHT22;54699;51.796;10.956;2022-10-17T09:57:17;24.40;52.60
67899;DHT22;54699;51.796;10.956;2022-10-17T10:00:03;24.40;53.30
67899;DHT22;54699;51.796;10.956;2022-10-17T10:06:00;24.60;52.30
67899;DHT22;54699;51.796;10.956;2022-10-17T10:08:32;24.50;54.60
67899;DHT22;54699;51.796;10.956;2022-10-17T10:11:18;24.50;51.60
67899;DHT22;54699;51.796;10.956;2022-10-17T10:13:53;24.50;50.40
67899;DHT22;54699;51.796;10.956;2022-10-17T10:16:29;24.50;52.40
67899;DHT22;54699;51.796;10.956;2022-10-17T10:18:57;24.50;52.50
67899;DHT22;54699;51.796;10.956;2022-10-17T10:21:25;24.50;51.90
67899;DHT22;54699;51.796;10.956;2022-10-17T10:24:04;24.50;51.20
67899;DHT22;54699;51.796;10.956;2022-10-17T10:26:38;24.60;52.10
67899;DHT22;54699;51.796;10.956;2022-10-17T10:29:18;24.60;52.00
67899;DHT22;54699;51.796;10.956;2022-10-17T10:31:49;24.60;52.00
67899;DHT22;54699;51.796;10.956;2022-10-17T10:34:19;24.60;52.30
67899;DHT22;54699;51.796;10.956;2022-10-17T10:36:56;24.60;51.10
67899;DHT22;54699;51.796;10.956;2022-10-17T10:39:43;24.60;51.10
67899;DHT22;54699;51.796;10.956;2022-10-17T10:42:21;24.60;51.60
67899;DHT22;54699;51.796;10.956;2022-10-17T10:44:51;24.50;51.70
67899;DHT22;54699;51.796;10.956;2022-10-17T10:47:22;24.50;52.00
67899;DHT22;54699;51.796;10.956;2022-10-17T10:49:52;24.50;50.90
67899;DHT22;54699;51.796;10.956;2022-10-17T10:52:37;24.50;50.90
67899;DHT22;54699;51.796;10.956;2022-10-17T10:55:16;24.60;52.00
67899;DHT22;54699;51.796;10.956;2022-10-17T10:57:49;24.60;51.70
67899;DHT22;54699;51.796;10.956;2022-10-17T11:00:22;24.50;50.30
67899;DHT22;54699;51.796;10.956;2022-10-17T11:02:56;24.50;51.90
67899;DHT22;54699;51.796;10.956;2022-10-17T11:05:34;24.50;51.50
67899;DHT22;54699;51.796;10.956;2022-10-17T11:08:10;24.40;52.30
67899;DHT22;54699;51.796;10.956;2022-10-17T11:10:58;24.50;52.40
67899;DHT22;54699;51.796;10.956;2022-10-17T11:13:33;24.40;51.70
67899;DHT22;54699;51.796;10.956;2022-10-17T11:16:09;24.50;51.30
67899;DHT22;54699;51.796;10.956;2022-10-17T11:18:47;24.60;51.50
67899;DHT22;54699;51.796;10.956;2022-10-17T11:21:19;24.50;50.90
67899;DHT22;54699;51.796;10.956;2022-10-17T11:23:55;24.60;50.10
67899;DHT22;54699;51.796;10.956;2022-10-17T11:26:30;24.60;50.80
67899;DHT22;54699;51.796;10.956;2022-10-17T11:29:01;24.70;50.00
67899;DHT22;54699;51.796;10.956;2022-10-17T11:31:31;24.70;49.80
67899;DHT22;54699;51.796;10.956;2022-10-17T11:34:04;24.80;50.10
67899;DHT22;54699;51.796;10.956;2022-10-17T11:36:36;24.90;49.60
67899;DHT22;54699;51.796;10.956;2022-10-17T11:39:10;24.90;51.20
67899;DHT22;54699;51.796;10.956;2022-10-17T11:41:54;24.80;50.80
67899;DHT22;54699;51.796;10.956;2022-10-17T11:44:27;24.80;50.40
67899;DHT22;54699;51.796;10.956;2022-10-17T11:46:58;24.70;50.40
67899;DHT22;54699;51.796;10.956;2022-10-17T11:49:31;24.80;50.50
67899;DHT22;54699;51.796;10.956;2022-10-17T11:52:06;24.80;50.80
67899;DHT22;54699;51.796;10.956;2022-10-17T11:54:44;25.00;49.10
67899;DHT22;54699;51.796;10.956;2022-10-17T11:57:25;25.10;50.10
67899;DHT22;54699;51.796;10.956;2022-10-17T12:00:06;25.10;49.60
67899;DHT22;54699;51.796;10.956;2022-10-17T12:02:47;25.00;49.40
67899;DHT22;54699;51.796;10.956;2022-10-17T12:05:25;25.10;49.90
67899;DHT22;54699;51.796;10.956;2022-10-17T12:08:11;25.10;49.70
67899;DHT22;54699;51.796;10.956;2022-10-17T12:10:44;25.10;48.40
67899;DHT22;54699;51.796;10.956;2022-10-17T12:19:19;25.10;49.60
67899;DHT22;54699;51.796;10.956;2022-10-17T12:21:54;25.10;49.00
67899;DHT22;54699;51.796;10.956;2022-10-17T12:24:26;25.10;50.00
67899;DHT22;54699;51.796;10.956;2022-10-17T12:30:02;25.10;50.50
67899;DHT22;54699;51.796;10.956;2022-10-17T12:32:32;25.10;49.90
67899;DHT22;54699;51.796;10.956;2022-10-17T12:35:00;25.10;51.00
67899;DHT22;54699;51.796;10.956;2022-10-17T12:37:59;25.20;49.50
67899;DHT22;54699;51.796;10.956;2022-10-17T12:40:48;25.20;49.60
67899;DHT22;54699;51.796;10.956;2022-10-17T12:43:44;25.20;50.10
67899;DHT22;54699;51.796;10.956;2022-10-17T12:49:23;25.40;50.00
67899;DHT22;54699;51.796;10.956;2022-10-17T12:54:52;25.30;48.50
67899;DHT22;54699;51.796;10.956;2022-10-17T12:57:37;25.40;50.30
67899;DHT22;54699;51.796;10.956;2022-10-17T13:00:16;25.40;49.40
67899;DHT22;54699;51.796;10.956;2022-10-17T13:02:47;25.30;48.60
67899;DHT22;54699;51.796;10.956;2022-10-17T13:05:16;25.30;50.40
67899;DHT22;54699;51.796;10.956;2022-10-17T13:07:49;25.30;49.40
67899;DHT22;54699;51.796;10.956;2022-10-17T13:10:21;25.30;49.70
67899;DHT22;54699;51.796;10.956;2022-10-17T13:12:49;25.20;50.50
67899;DHT22;54699;51.796;10.956;2022-10-17T13:15:19;25.30;50.60
67899;DHT22;54699;51.796;10.956;2022-10-17T13:17:53;25.30;50.20
67899;DHT22;54699;51.796;10.956;2022-10-17T13:20:23;25.30;50.10
67899;DHT22;54699;51.796;10.956;2022-10-17T13:22:53;25.40;49.60
67899;DHT22;54699;51.796;10.956;2022-10-17T13:25:23;25.40;50.30
67899;DHT22;54699;51.796;10.956;2022-10-17T13:27:58;25.40;50.40
67899;DHT22;54699;51.796;10.956;2022-10-17T13:30:31;25.40;49.00
67899;DHT22;54699;51.796;10.956;2022-10-17T13:32:59;25.40;49.70
67899;DHT22;54699;51.796;10.956;2022-10-17T13:35:27;25.30;50.40
67899;DHT22;54699;51.796;10.956;2022-10-17T13:37:56;25.30;49.10
67899;DHT22;54699;51.796;10.956;2022-10-17T13:40:28;25.30;49.00
67899;DHT22;54699;51.796;10.956;2022-10-17T13:42:56;25.40;51.20
67899;DHT22;54699;51.796;10.956;2022-10-17T13:45:27;25.40;51.60
67899;DHT22;54699;51.796;10.956;2022-10-17T13:47:55;25.40;51.90
67899;DHT22;54699;51.796;10.956;2022-10-17T13:50:26;25.40;51.90
67899;DHT22;54699;51.796;10.956;2022-10-17T13:53:16;25.50;51.90
67899;DHT22;54699;51.796;10.956;2022-10-17T13:55:56;25.40;52.00
67899;DHT22;54699;51.796;10.956;2022-10-17T13:58:25;25.50;52.10
67899;DHT22;54699;51.796;10.956;2022-10-17T14:00:56;25.50;53.30
67899;DHT22;54699;51.796;10.956;2022-10-17T14:03:24;25.50;52.00
67899;DHT22;54699;51.796;10.956;2022-10-17T14:05:57;25.50;52.20
67899;DHT22;54699;51.796;10.956;2022-10-17T14:08:27;25.50;52.10
67899;DHT22;54699;51.796;10.956;2022-10-17T14:10:56;25.50;51.30
67899;DHT22;54699;51.796;10.956;2022-10-17T14:13:24;25.40;52.00
67899;DHT22;54699;51.796;10.956;2022-10-17T14:15:53;25.40;52.50
67899;DHT22;54699;51.796;10.956;2022-10-17T14:18:23;25.50;51.30
67899;DHT22;54699;51.796;10.956;2022-10-17T14:20:52;25.60;52.20
67899;DHT22;54699;51.796;10.956;2022-10-17T14:23:27;25.40;52.50
67899;DHT22;54699;51.796;10.956;2022-10-17T14:26:04;25.40;52.10
67899;DHT22;54699;51.796;10.956;2022-10-17T14:28:36;25.40;51.90
67899;DHT22;54699;51.796;10.956;2022-10-17T14:31:10;25.30;52.50
67899;DHT22;54699;51.796;10.956;2022-10-17T14:33:42;25.30;52.90
67899;DHT22;54699;51.796;10.956;2022-10-17T14:36:10;25.30;52.90
67899;DHT22;54699;51.796;10.956;2022-10-17T14:38:43;25.30;52.80
67899;DHT22;54699;51.796;10.956;2022-10-17T14:41:14;25.40;52.70
67899;DHT22;54699;51.796;10.956;2022-10-17T14:43:50;25.40;53.00
67899;DHT22;54699;51.796;10.956;2022-10-17T14:46:18;25.40;53.00
67899;DHT22;54699;51.796;10.956;2022-10-17T14:48:45;25.30;53.20
67899;DHT22;54699;51.796;10.956;2022-10-17T14:51:18;25.40;53.30
67899;DHT22;54699;51.796;10.956;2022-10-17T14:53:57;25.40;53.00
67899;DHT22;54699;51.796;10.956;2022-10-17T14:56:32;25.50;53.70
67899;DHT22;54699;51.796;10.956;2022-10-17T14:59:01;25.50;54.20
67899;DHT22;54699;51.796;10.956;2022-10-17T15:01:30;25.40;54.20
67899;DHT22;54699;51.796;10.956;2022-10-17T15:03:58;25.40;54.50
67899;DHT22;54699;51.796;10.956;2022-10-17T15:06:26;25.40;54.30
67899;DHT22;54699;51.796;10.956;2022-10-17T15:08:54;25.40;54.60
67899;DHT22;54699;51.796;10.956;2022-10-17T15:11:20;25.40;54.90
67899;DHT22;54699;51.796;10.956;2022-10-17T15:13:49;25.30;55.20
67899;DHT22;54699;51.796;10.956;2022-10-17T15:16:17;25.30;55.40
67899;DHT22;54699;51.796;10.956;2022-10-17T15:18:45;25.30;55.70
67899;DHT22;54699;51.796;10.956;2022-10-17T15:21:13;25.20;55.80
67899;DHT22;54699;51.796;10.956;2022-10-17T15:23:44;25.20;56.00
67899;DHT22;54699;51.796;10.956;2022-10-17T15:26:12;25.20;56.20
67899;DHT22;54699;51.796;10.956;2022-10-17T15:28:40;25.20;56.30
67899;DHT22;54699;51.796;10.956;2022-10-17T15:31:11;25.20;56.30
67899;DHT22;54699;51.796;10.956;2022-10-17T15:33:39;25.20;56.30
67899;DHT22;54699;51.796;10.956;2022-10-17T15:36:17;25.10;56.40
67899;DHT22;54699;51.796;10.956;2022-10-17T15:38:49;25.00;56.00
67899;DHT22;54699;51.796;10.956;2022-10-17T15:41:17;25.10;55.90
67899;DHT22;54699;51.796;10.956;2022-10-17T15:43:45;25.00;55.20
67899;DHT22;54699;51.796;10.956;2022-10-17T15:46:15;25.00;56.40
67899;DHT22;54699;51.796;10.956;2022-10-17T15:48:45;24.90;55.30
67899;DHT22;54699;51.796;10.956;2022-10-17T15:51:13;24.90;56.00
67899;DHT22;54699;51.796;10.956;2022-10-17T15:53:40;24.90;55.50
67899;DHT22;54699;51.796;10.956;2022-10-17T15:56:07;24.90;56.40
67899;DHT22;54699;51.796;10.956;2022-10-17T15:58:47;24.80;55.70
67899;DHT22;54699;51.796;10.956;2022-10-17T16:01:17;24.70;56.20
67899;DHT22;54699;51.796;10.956;2022-10-17T16:03:46;24.70;55.90
67899;DHT22;54699;51.796;10.956;2022-10-17T16:06:15;24.70;56.00
67899;DHT22;54699;51.796;10.956;2022-10-17T16:08:42;24.70;56.70
67899;DHT22;54699;51.796;10.956;2022-10-17T16:11:11;24.60;56.00
67899;DHT22;54699;51.796;10.956;2022-10-17T16:13:44;24.60;55.80
67899;DHT22;54699;51.796;10.956;2022-10-17T16:16:17;24.70;55.90
67899;DHT22;54699;51.796;10.956;2022-10-17T16:18:44;24.70;56.10
67899;DHT22;54699;51.796;10.956;2022-10-17T16:21:13;24.70;55.70
67899;DHT22;54699;51.796;10.956;2022-10-17T16:23:42;24.70;56.00
67899;DHT22;54699;51.796;10.956;2022-10-17T16:26:09;24.70;55.80
67899;DHT22;54699;51.796;10.956;2022-10-17T16:28:38;24.70;55.80